createdAt,value
2023-01-07T00:01:27.349Z,11.30
2023-01-07T00:03:55.593Z,11.80
2023-01-07T00:06:36.809Z,11.00
2023-01-07T00:09:06.229Z,9.80
2023-01-07T00:11:36.310Z,13.70
2023-01-07T00:14:04.876Z,12.95
2023-01-07T00:16:33.166Z,12.30
2023-01-07T00:19:01.414Z,12.50
2023-01-07T00:21:29.257Z,12.63
2023-01-07T00:23:57.644Z,13.07
2023-01-07T00:26:26.946Z,12.57
2023-01-07T00:28:54.391Z,10.48
2023-01-07T00:31:23.435Z,13.00
2023-01-07T00:33:59.643Z,13.48
2023-01-07T00:36:29.590Z,14.25
2023-01-07T00:39:01.423Z,14.55
2023-01-07T00:41:28.340Z,9.75
2023-01-07T00:43:55.074Z,10.75
2023-01-07T00:46:22.353Z,9.93
2023-01-07T00:48:49.117Z,10.07
2023-01-07T00:51:17.422Z,8.05
2023-01-07T00:53:44.279Z,9.43
2023-01-07T00:56:12.505Z,8.55
2023-01-07T00:58:39.195Z,11.32
2023-01-07T01:01:06.340Z,8.80
2023-01-07T01:03:33.605Z,8.35
2023-01-07T01:06:05.736Z,9.77
2023-01-07T01:08:32.340Z,8.57
2023-01-07T01:11:09.592Z,8.68
2023-01-07T01:16:08.613Z,7.65
2023-01-07T01:18:35.414Z,8.88
2023-01-07T01:21:06.957Z,8.77
2023-01-07T01:23:33.961Z,8.73
2023-01-07T01:26:09.053Z,9.63
2023-01-07T01:28:35.987Z,9.75
2023-01-07T01:31:03.155Z,8.93
2023-01-07T01:33:30.043Z,9.23
2023-01-07T01:35:56.711Z,11.43
2023-01-07T01:38:23.220Z,11.65
2023-01-07T01:40:49.805Z,9.70
2023-01-07T01:43:48.995Z,10.75
2023-01-07T01:46:35.039Z,10.00
2023-01-07T01:49:31.343Z,10.50
2023-01-07T01:52:10.045Z,10.07
2023-01-07T01:54:36.911Z,10.15
2023-01-07T01:57:05.750Z,10.20
2023-01-07T01:59:35.805Z,10.82
2023-01-07T02:05:13.303Z,10.48
2023-01-07T02:07:39.811Z,10.43
2023-01-07T02:10:17.438Z,9.57
2023-01-07T02:12:47.103Z,10.13
2023-01-07T02:15:52.380Z,9.27
2023-01-07T02:18:37.718Z,10.68
2023-01-07T02:21:52.320Z,11.90
2023-01-07T02:24:21.533Z,11.38
2023-01-07T02:27:20.896Z,10.55
2023-01-07T02:30:09.889Z,11.57
2023-01-07T02:32:42.499Z,11.10
2023-01-07T02:35:37.410Z,11.57
2023-01-07T02:38:16.081Z,12.13
2023-01-07T02:40:58.143Z,11.82
2023-01-07T02:43:33.302Z,11.38
2023-01-07T02:46:10.410Z,10.95
2023-01-07T02:48:38.834Z,14.48
2023-01-07T02:51:05.660Z,11.93
2023-01-07T02:53:33.035Z,11.30
2023-01-07T02:56:21.372Z,13.68
2023-01-07T02:59:06.170Z,12.73
2023-01-07T03:01:38.327Z,13.57
2023-01-07T03:04:32.723Z,14.25
2023-01-07T03:07:24.634Z,12.43
2023-01-07T03:10:12.113Z,12.95
2023-01-07T03:12:41.960Z,12.07
2023-01-07T03:15:16.424Z,12.55
2023-01-07T03:18:08.889Z,13.95
2023-01-07T03:20:38.628Z,12.05
2023-01-07T03:23:09.761Z,16.27
2023-01-07T03:28:07.679Z,15.10
2023-01-07T03:30:35.386Z,15.93
2023-01-07T03:33:10.031Z,16.50
2023-01-07T03:35:40.283Z,16.85
2023-01-07T03:38:08.461Z,17.92
2023-01-07T03:40:35.154Z,16.80
2023-01-07T03:43:01.772Z,17.73
2023-01-07T03:45:29.312Z,15.85
2023-01-07T03:47:57.222Z,15.23
2023-01-07T03:50:24.172Z,16.33
2023-01-07T03:52:53.508Z,16.02
2023-01-07T03:55:20.080Z,16.73
2023-01-07T03:57:46.752Z,14.00
2023-01-07T04:00:14.659Z,16.38
2023-01-07T04:02:42.927Z,17.88
2023-01-07T04:05:10.896Z,16.45
2023-01-07T04:07:38.038Z,16.90
2023-01-07T04:10:06.294Z,14.23
2023-01-07T04:12:33.236Z,17.15
2023-01-07T04:14:59.887Z,17.15
2023-01-07T04:17:26.646Z,17.30
2023-01-07T04:19:53.382Z,17.40
2023-01-07T04:22:20.201Z,15.88
2023-01-07T04:24:46.707Z,14.70
2023-01-07T04:27:13.376Z,15.27
2023-01-07T04:29:39.933Z,16.10
2023-01-07T04:32:06.439Z,15.50
2023-01-07T04:34:33.077Z,15.18
2023-01-07T04:36:59.700Z,16.00
2023-01-07T04:39:26.208Z,17.50
2023-01-07T04:41:52.790Z,13.73
2023-01-07T04:44:19.451Z,15.43
2023-01-07T04:46:45.983Z,17.05
2023-01-07T04:49:13.115Z,14.32
2023-01-07T04:51:39.766Z,14.52
2023-01-07T04:54:06.322Z,15.93
2023-01-07T04:56:33.010Z,13.90
2023-01-07T04:58:59.660Z,14.60
2023-01-07T05:01:26.295Z,15.50
2023-01-07T05:03:52.944Z,13.35
2023-01-07T05:06:19.523Z,16.60
2023-01-07T05:08:46.025Z,15.02
2023-01-07T05:11:12.744Z,14.13
2023-01-07T05:13:39.324Z,15.90
2023-01-07T05:16:06.217Z,14.63
2023-01-07T05:18:32.861Z,19.40
2023-01-07T05:20:59.592Z,16.67
2023-01-07T05:23:26.101Z,16.10
2023-01-07T05:25:52.722Z,16.40
2023-01-07T05:28:19.308Z,13.73
2023-01-07T05:30:47.356Z,14.13
2023-01-07T05:33:14.027Z,15.25
2023-01-07T05:35:40.676Z,13.80
2023-01-07T05:38:07.263Z,15.45
2023-01-07T05:40:33.908Z,15.60
2023-01-07T05:43:00.752Z,14.15
2023-01-07T05:45:27.261Z,13.48
2023-01-07T05:47:53.811Z,14.80
2023-01-07T05:50:20.460Z,13.60
2023-01-07T05:52:47.456Z,12.90
2023-01-07T05:55:14.166Z,15.45
2023-01-07T05:57:40.763Z,12.57
2023-01-07T06:00:10.346Z,11.32
2023-01-07T06:02:37.389Z,14.65
2023-01-07T06:05:04.745Z,14.10
2023-01-07T06:07:31.319Z,12.25
2023-01-07T06:09:57.986Z,11.70
2023-01-07T06:12:24.586Z,12.02
2023-01-07T06:14:51.103Z,12.73
2023-01-07T06:17:17.814Z,11.60
2023-01-07T06:19:44.411Z,11.60
2023-01-07T06:22:10.944Z,12.40
2023-01-07T06:24:38.346Z,14.07
2023-01-07T06:27:04.916Z,13.18
2023-01-07T06:29:31.452Z,12.55
2023-01-07T06:31:58.381Z,9.75
2023-01-07T06:34:24.959Z,11.27
2023-01-07T06:36:51.498Z,11.60
2023-01-07T06:39:18.089Z,12.30
2023-01-07T06:41:44.637Z,12.15
2023-01-07T06:44:11.247Z,10.00
2023-01-07T06:46:37.936Z,13.15
2023-01-07T06:49:04.742Z,13.48
2023-01-07T06:51:31.417Z,12.07
2023-01-07T06:53:58.573Z,12.75
2023-01-07T06:56:25.264Z,12.88
2023-01-07T06:58:51.808Z,12.35
2023-01-07T07:01:18.475Z,12.68
2023-01-07T07:03:45.108Z,12.57
2023-01-07T07:06:11.616Z,12.95
2023-01-07T07:08:38.215Z,10.98
2023-01-07T07:11:04.902Z,10.63
2023-01-07T07:13:31.429Z,12.30
2023-01-07T07:15:58.116Z,10.43
2023-01-07T07:18:24.807Z,11.35
2023-01-07T07:20:51.306Z,11.93
2023-01-07T07:23:17.991Z,11.32
2023-01-07T07:25:44.755Z,14.15
2023-01-07T07:28:11.274Z,12.13
2023-01-07T07:30:45.586Z,12.80
2023-01-07T07:33:15.111Z,14.73
2023-01-07T07:35:42.146Z,10.40
2023-01-07T07:38:08.659Z,11.38
2023-01-07T07:40:35.239Z,9.95
2023-01-07T07:43:10.549Z,10.50
2023-01-07T07:48:07.478Z,12.38
2023-01-07T07:50:34.639Z,9.57
2023-01-07T07:53:01.420Z,9.40
2023-01-07T07:55:28.856Z,11.38
2023-01-07T07:57:56.768Z,11.68
2023-01-07T08:00:23.476Z,14.00
2023-01-07T08:02:50.327Z,11.50
2023-01-07T08:05:16.974Z,12.77
2023-01-07T08:07:43.627Z,13.43
2023-01-07T08:10:10.332Z,10.70
2023-01-07T08:12:38.523Z,13.55
2023-01-07T08:15:06.477Z,11.52
2023-01-07T08:17:33.155Z,14.52
2023-01-07T08:19:59.645Z,11.65
2023-01-07T08:22:26.247Z,11.95
2023-01-07T08:24:53.044Z,12.98
2023-01-07T08:27:19.633Z,12.50
2023-01-07T08:29:46.244Z,12.63
2023-01-07T08:32:13.304Z,12.20
2023-01-07T08:34:39.841Z,11.40
2023-01-07T08:37:06.524Z,14.25
2023-01-07T08:39:33.195Z,10.40
2023-01-07T08:41:59.756Z,9.30
2023-01-07T08:44:26.350Z,11.40
2023-01-07T08:46:54.294Z,8.48
2023-01-07T08:49:21.137Z,9.20
2023-01-07T08:51:47.781Z,4.85
2023-01-07T08:54:14.454Z,4.60
2023-01-07T08:56:41.015Z,4.75
2023-01-07T08:59:07.673Z,5.43
2023-01-07T09:01:34.501Z,4.53
2023-01-07T09:04:01.094Z,5.10
2023-01-07T09:06:27.745Z,6.03
2023-01-07T09:08:54.360Z,5.40
2023-01-07T09:11:20.940Z,5.18
2023-01-07T09:13:47.494Z,5.40
2023-01-07T09:16:14.269Z,5.28
2023-01-07T09:18:40.826Z,6.03
2023-01-07T09:21:07.522Z,5.38
2023-01-07T09:23:34.518Z,5.32
2023-01-07T09:26:01.383Z,4.63
2023-01-07T09:28:28.015Z,6.18
2023-01-07T09:30:56.660Z,6.45
2023-01-07T09:33:23.564Z,6.07
2023-01-07T09:35:50.166Z,5.82
2023-01-07T09:38:16.847Z,6.20
2023-01-07T09:40:44.775Z,6.55
2023-01-07T09:44:00.067Z,5.72
2023-01-07T09:46:20.900Z,6.47
2023-01-07T09:48:54.247Z,5.88
2023-01-07T09:51:26.854Z,7.95
2023-01-07T09:53:56.823Z,5.90
2023-01-07T09:56:27.020Z,5.85
2023-01-07T09:58:55.143Z,7.50
2023-01-07T10:01:50.865Z,5.40
2023-01-07T10:04:37.735Z,5.50
2023-01-07T10:07:23.226Z,4.45
2023-01-07T10:10:27.441Z,5.05
2023-01-07T10:13:16.590Z,5.45
2023-01-07T10:15:46.182Z,4.53
2023-01-07T10:18:21.627Z,3.83
2023-01-07T10:20:56.302Z,4.55
2023-01-07T10:23:28.872Z,4.55
2023-01-07T10:25:57.029Z,4.00
2023-01-07T10:28:40.223Z,3.47
2023-01-07T10:31:16.713Z,4.28
2023-01-07T10:33:45.980Z,3.25
2023-01-07T10:36:23.850Z,4.30
2023-01-07T10:39:27.713Z,3.78
2023-01-07T10:42:30.722Z,4.65
2023-01-07T10:45:16.144Z,2.80
2023-01-07T10:48:14.963Z,3.53
2023-01-07T10:50:53.503Z,3.08
2023-01-07T10:53:27.691Z,4.50
2023-01-07T10:56:12.940Z,4.57
2023-01-07T10:58:42.347Z,5.13
2023-01-07T11:01:18.562Z,3.30
2023-01-07T11:03:50.096Z,4.80
2023-01-07T11:06:19.974Z,3.85
2023-01-07T11:08:46.915Z,3.50
2023-01-07T11:11:17.016Z,2.95
2023-01-07T11:13:58.602Z,4.00
2023-01-07T11:16:29.246Z,3.35
2023-01-07T11:19:10.579Z,3.92
2023-01-07T11:21:44.710Z,3.83
2023-01-07T11:24:32.812Z,3.70
2023-01-07T11:27:03.234Z,5.00
2023-01-07T11:30:05.175Z,4.25
2023-01-07T11:32:41.069Z,5.53
2023-01-07T11:35:29.120Z,5.68
2023-01-07T11:37:56.850Z,4.72
2023-01-07T11:40:32.526Z,5.50
2023-01-07T11:43:01.940Z,4.47
2023-01-07T11:45:33.005Z,4.03
2023-01-07T11:48:05.341Z,4.05
2023-01-07T11:50:42.060Z,4.25
2023-01-07T11:53:14.723Z,3.83
2023-01-07T11:56:07.735Z,4.70
2023-01-07T11:58:41.172Z,3.45
2023-01-07T12:01:07.680Z,3.70
2023-01-07T12:03:35.600Z,4.35
2023-01-07T12:06:33.004Z,4.25
2023-01-07T12:09:16.616Z,4.32
2023-01-07T12:11:45.346Z,4.80
2023-01-07T12:14:31.549Z,4.40
2023-01-07T12:17:20.264Z,4.38
2023-01-07T12:20:17.705Z,3.97
2023-01-07T12:23:02.631Z,4.70
2023-01-07T12:25:44.370Z,3.65
2023-01-07T12:28:19.803Z,3.83
2023-01-07T12:31:06.602Z,3.20
2023-01-07T12:33:50.670Z,4.45
2023-01-07T12:36:37.395Z,4.68
2023-01-07T12:39:09.888Z,5.65
2023-01-07T12:41:44.053Z,3.30
2023-01-07T12:44:10.627Z,4.28
2023-01-07T12:46:43.018Z,4.38
2023-01-07T12:49:24.045Z,3.75
2023-01-07T12:52:08.331Z,4.35
2023-01-07T12:55:03.741Z,5.82
2023-01-07T12:57:37.034Z,2.92
2023-01-07T13:00:15.522Z,4.65
2023-01-07T13:03:00.489Z,3.92
2023-01-07T13:05:46.682Z,5.93
2023-01-07T13:08:23.749Z,3.40
2023-01-07T13:13:48.731Z,5.15
2023-01-07T13:16:15.510Z,4.50
2023-01-07T13:18:42.146Z,4.88
2023-01-07T13:21:14.090Z,3.08
2023-01-07T13:24:08.847Z,2.97
2023-01-07T13:26:53.674Z,7.53
2023-01-07T13:29:55.249Z,3.75
2023-01-07T13:32:37.034Z,4.38
2023-01-07T13:35:16.455Z,2.75
2023-01-07T13:38:07.817Z,3.25
2023-01-07T13:40:45.743Z,3.83
2023-01-07T13:43:12.236Z,3.38
2023-01-07T13:45:42.519Z,4.63
2023-01-07T13:48:22.813Z,3.60
2023-01-07T13:51:07.929Z,3.47
2023-01-07T13:53:39.925Z,4.35
2023-01-07T13:56:18.835Z,5.15
2023-01-07T13:58:50.313Z,3.75
2023-01-07T14:01:33.771Z,5.65
2023-01-07T14:04:03.536Z,4.05
2023-01-07T14:06:30.019Z,5.18
2023-01-07T14:08:56.732Z,6.85
2023-01-07T14:11:29.537Z,3.45
2023-01-07T14:14:15.416Z,5.45
2023-01-07T14:16:57.179Z,4.75
2023-01-07T14:19:34.385Z,3.80
2023-01-07T14:22:13.313Z,3.25
2023-01-07T14:25:01.405Z,3.60
2023-01-07T14:27:43.254Z,4.20
2023-01-07T14:30:21.982Z,5.05
2023-01-07T14:33:04.013Z,4.80
2023-01-07T14:35:36.771Z,3.10
2023-01-07T14:38:34.265Z,2.90
2023-01-07T14:41:03.484Z,3.17
2023-01-07T14:43:48.241Z,4.10
2023-01-07T14:46:24.125Z,2.60
2023-01-07T14:49:03.360Z,3.65
2023-01-07T14:51:45.115Z,4.82
2023-01-07T14:54:32.764Z,4.50
2023-01-07T14:57:07.508Z,3.85
2023-01-07T14:59:40.354Z,5.47
2023-01-07T15:02:31.319Z,3.53
2023-01-07T15:05:23.401Z,3.30
2023-01-07T15:08:15.880Z,3.63
2023-01-07T15:11:02.843Z,3.65
2023-01-07T15:13:49.908Z,4.45
2023-01-07T15:16:21.489Z,3.20
2023-01-07T15:18:49.515Z,3.67
2023-01-07T15:21:35.131Z,3.08
2023-01-07T15:24:14.332Z,4.03
2023-01-07T15:26:54.309Z,2.08
2023-01-07T15:29:23.940Z,4.55
2023-01-07T15:32:06.578Z,3.97
2023-01-07T15:34:33.440Z,4.15
2023-01-07T15:37:04.846Z,2.85
2023-01-07T15:39:40.944Z,5.65
2023-01-07T15:42:16.163Z,5.22
2023-01-07T15:44:43.165Z,5.65
2023-01-07T15:47:41.259Z,4.43
2023-01-07T15:50:28.018Z,5.55
2023-01-07T15:52:54.587Z,3.53
2023-01-07T15:55:27.991Z,3.95
2023-01-07T15:58:01.582Z,4.43
2023-01-07T16:00:28.298Z,5.43
2023-01-07T16:02:55.844Z,4.95
2023-01-07T16:05:24.979Z,3.50
2023-01-07T16:07:53.113Z,4.55
2023-01-07T16:10:34.114Z,5.03
2023-01-07T16:13:18.316Z,6.55
2023-01-07T16:15:45.000Z,4.85
2023-01-07T16:18:13.389Z,3.85
2023-01-07T16:20:48.767Z,4.70
2023-01-07T16:23:30.576Z,4.95
2023-01-07T16:26:04.768Z,5.25
2023-01-07T16:29:02.909Z,5.00
2023-01-07T16:31:30.952Z,9.85
2023-01-07T16:33:59.747Z,3.40
2023-01-07T16:36:34.389Z,3.40
2023-01-07T16:39:06.545Z,3.40
2023-01-07T16:41:34.270Z,3.53
2023-01-07T16:44:00.988Z,3.60
2023-01-07T16:46:36.630Z,3.38
2023-01-07T16:49:09.149Z,3.95
2023-01-07T16:51:37.847Z,4.43
2023-01-07T16:54:29.517Z,4.35
2023-01-07T16:56:58.489Z,4.57
2023-01-07T16:59:29.399Z,4.05
2023-01-07T17:04:27.984Z,5.68
2023-01-07T17:06:54.725Z,3.17
2023-01-07T17:09:25.135Z,3.60
2023-01-07T17:11:52.908Z,4.57
2023-01-07T17:14:34.711Z,2.90
2023-01-07T17:17:16.654Z,5.30
2023-01-07T17:20:09.710Z,3.33
2023-01-07T17:22:41.971Z,3.75
2023-01-07T17:25:10.162Z,4.72
2023-01-07T17:27:59.967Z,4.70
2023-01-07T17:30:33.313Z,4.93
2023-01-07T17:33:00.024Z,3.05
2023-01-07T17:35:28.141Z,4.40
2023-01-07T17:37:55.113Z,3.45
2023-01-07T17:40:21.841Z,7.43
2023-01-07T17:43:09.346Z,3.33
2023-01-07T17:45:36.099Z,5.40
2023-01-07T17:48:02.719Z,3.95
2023-01-07T17:50:36.170Z,4.78
2023-01-07T17:53:03.702Z,3.88
2023-01-07T17:55:33.847Z,4.50
2023-01-07T17:58:00.519Z,3.83
2023-01-07T18:00:30.788Z,3.63
2023-01-07T18:02:58.233Z,6.32
2023-01-07T18:05:26.390Z,6.05
2023-01-07T18:07:53.438Z,6.57
2023-01-07T18:10:25.971Z,4.80
2023-01-07T18:12:52.615Z,4.40
2023-01-07T18:15:27.257Z,4.93
2023-01-07T18:17:54.044Z,3.95
2023-01-07T18:20:22.211Z,4.03
2023-01-07T18:22:49.732Z,4.68
2023-01-07T18:25:22.313Z,3.22
2023-01-07T18:27:52.820Z,3.45
2023-01-07T18:30:21.563Z,4.65
2023-01-07T18:32:49.143Z,4.40
2023-01-07T18:35:15.810Z,3.47
2023-01-07T18:37:42.393Z,7.45
2023-01-07T18:40:10.043Z,4.35
2023-01-07T18:42:36.981Z,4.53
2023-01-07T18:45:09.019Z,6.88
2023-01-07T18:47:35.652Z,5.10
2023-01-07T18:50:02.972Z,6.03
2023-01-07T18:52:31.025Z,5.78
2023-01-07T18:54:58.011Z,4.45
2023-01-07T18:57:24.662Z,4.28
2023-01-07T18:59:51.143Z,5.68
2023-01-07T19:02:20.730Z,3.83
2023-01-07T19:04:48.572Z,4.68
2023-01-07T19:07:19.789Z,4.22
2023-01-07T19:09:46.863Z,4.18
2023-01-07T19:12:14.443Z,3.88
2023-01-07T19:14:41.580Z,3.95
2023-01-07T19:17:08.523Z,4.18
2023-01-07T19:19:47.293Z,3.92
2023-01-07T19:22:16.386Z,4.82
2023-01-07T19:24:43.685Z,5.63
2023-01-07T19:27:10.903Z,4.55
2023-01-07T19:29:37.754Z,5.38
2023-01-07T19:32:04.500Z,3.65
2023-01-07T19:34:31.087Z,4.22
2023-01-07T19:36:57.799Z,3.47
2023-01-07T19:39:24.628Z,3.95
2023-01-07T19:41:51.209Z,5.88
2023-01-07T19:44:18.261Z,2.70
2023-01-07T19:46:44.834Z,4.47
2023-01-07T19:49:12.970Z,4.03
2023-01-07T19:51:42.096Z,4.07
2023-01-07T19:54:17.515Z,3.78
2023-01-07T19:56:44.510Z,3.60
2023-01-07T19:59:11.353Z,3.45
2023-01-07T20:01:39.048Z,3.50
2023-01-07T20:04:07.863Z,6.07
2023-01-07T20:06:38.817Z,3.67
2023-01-07T20:11:38.644Z,2.97
2023-01-07T20:14:07.142Z,4.88
2023-01-07T20:16:35.995Z,4.03
2023-01-07T20:19:03.024Z,4.25
2023-01-07T20:21:29.571Z,3.50
2023-01-07T20:23:56.217Z,5.07
2023-01-07T20:26:32.783Z,3.25
2023-01-07T20:29:00.483Z,3.47
2023-01-07T20:31:28.972Z,3.95
2023-01-07T20:33:55.952Z,3.08
2023-01-07T20:36:26.015Z,3.10
2023-01-07T20:38:52.882Z,2.97
2023-01-07T20:41:22.121Z,3.90
2023-01-07T20:43:54.073Z,2.72
2023-01-07T20:46:21.060Z,2.92
2023-01-07T20:48:47.758Z,3.13
2023-01-07T20:51:15.015Z,2.97
2023-01-07T20:53:43.066Z,3.42
2023-01-07T20:56:12.601Z,2.67
2023-01-07T20:58:40.582Z,4.30
2023-01-07T21:01:10.958Z,3.95
2023-01-07T21:03:38.812Z,2.78
2023-01-07T21:06:08.325Z,3.47
2023-01-07T21:08:36.513Z,3.00
2023-01-07T21:11:03.049Z,3.50
2023-01-07T21:13:29.715Z,2.30
2023-01-07T21:16:02.093Z,2.80
2023-01-07T21:18:28.990Z,3.72
2023-01-07T21:20:56.035Z,4.93
2023-01-07T21:23:22.761Z,3.00
2023-01-07T21:25:49.683Z,3.75
2023-01-07T21:28:16.383Z,2.90
2023-01-07T21:30:43.096Z,3.42
2023-01-07T21:33:09.669Z,3.42
2023-01-07T21:35:40.061Z,3.33
2023-01-07T21:38:06.715Z,2.95
2023-01-07T21:40:33.374Z,3.53
2023-01-07T21:43:00.005Z,1.95
2023-01-07T21:45:26.593Z,3.03
2023-01-07T21:47:53.817Z,3.88
2023-01-07T21:50:20.505Z,2.92
2023-01-07T21:52:47.024Z,3.75
2023-01-07T21:55:13.506Z,3.55
2023-01-07T21:57:40.221Z,4.72
2023-01-07T22:00:07.500Z,7.60
2023-01-07T22:02:34.087Z,3.70
2023-01-07T22:05:00.754Z,2.25
2023-01-07T22:07:27.371Z,5.07
2023-01-07T22:09:54.021Z,3.33
2023-01-07T22:12:20.716Z,2.20
2023-01-07T22:14:47.501Z,1.73
2023-01-07T22:17:15.599Z,3.08
2023-01-07T22:19:42.344Z,3.63
2023-01-07T22:22:09.027Z,6.25
2023-01-07T22:24:35.706Z,3.35
2023-01-07T22:27:02.352Z,1.83
2023-01-07T22:29:32.226Z,2.22
2023-01-07T22:31:59.058Z,2.83
2023-01-07T22:34:25.749Z,3.55
2023-01-07T22:37:12.027Z,2.25
2023-01-07T22:39:46.776Z,5.15
2023-01-07T22:42:37.372Z,4.82
2023-01-07T22:45:15.290Z,2.47
2023-01-07T22:47:46.463Z,3.90
2023-01-07T22:50:14.636Z,3.83
2023-01-07T22:52:42.813Z,4.40
2023-01-07T22:55:11.004Z,3.88
2023-01-07T22:57:39.005Z,3.47
2023-01-07T23:00:10.216Z,2.95
2023-01-07T23:02:36.809Z,2.70
2023-01-07T23:05:03.463Z,2.88
2023-01-07T23:07:30.068Z,2.50
2023-01-07T23:09:56.645Z,5.35
2023-01-07T23:12:23.152Z,4.13
2023-01-07T23:14:49.728Z,3.80
2023-01-07T23:17:16.387Z,3.78
2023-01-07T23:19:42.869Z,4.10
2023-01-07T23:22:09.444Z,4.97
2023-01-07T23:24:36.242Z,4.07
2023-01-07T23:27:02.746Z,4.78
2023-01-07T23:29:29.334Z,5.45
2023-01-07T23:31:55.999Z,2.58
2023-01-07T23:34:22.584Z,4.05
2023-01-07T23:36:49.215Z,3.55
2023-01-07T23:39:16.042Z,2.28
2023-01-07T23:41:42.613Z,3.47
2023-01-07T23:44:09.219Z,3.00
2023-01-07T23:46:35.889Z,5.97
2023-01-07T23:49:02.406Z,3.97
2023-01-07T23:51:29.055Z,3.08
2023-01-07T23:53:55.594Z,6.35
2023-01-07T23:56:22.584Z,1.90
2023-01-07T23:58:50.090Z,3.92
